createdAt,value
2023-01-13T00:00:23.982Z,1.60
2023-01-13T00:02:51.767Z,2.58
2023-01-13T00:05:20.310Z,3.05
2023-01-13T00:07:49.303Z,2.40
2023-01-13T00:10:18.625Z,2.25
2023-01-13T00:12:46.320Z,2.80
2023-01-13T00:15:14.464Z,2.47
2023-01-13T00:17:42.163Z,2.30
2023-01-13T00:20:11.156Z,2.10
2023-01-13T00:22:38.785Z,2.33
2023-01-13T00:25:06.885Z,2.22
2023-01-13T00:27:36.137Z,2.78
2023-01-13T00:30:03.984Z,1.58
2023-01-13T00:32:33.703Z,1.98
2023-01-13T00:35:01.340Z,4.05
2023-01-13T00:37:29.115Z,2.38
2023-01-13T00:39:57.869Z,1.30
2023-01-13T00:42:43.080Z,1.33
2023-01-13T00:45:12.340Z,1.52
2023-01-13T00:47:40.165Z,2.00
2023-01-13T00:50:07.993Z,2.70
2023-01-13T00:52:35.626Z,1.23
2023-01-13T00:55:03.861Z,1.50
2023-01-13T00:57:31.692Z,1.67
2023-01-13T00:59:59.338Z,1.63
2023-01-13T01:02:28.438Z,1.05
2023-01-13T01:04:56.176Z,2.13
2023-01-13T01:07:23.991Z,1.27
2023-01-13T01:09:51.710Z,1.35
2023-01-13T01:12:19.401Z,1.00
2023-01-13T01:14:47.217Z,2.42
2023-01-13T01:17:14.870Z,1.75
2023-01-13T01:19:43.890Z,1.40
2023-01-13T01:22:13.456Z,1.40
2023-01-13T01:24:41.147Z,2.78
2023-01-13T01:27:08.822Z,1.50
2023-01-13T01:29:36.453Z,1.80
2023-01-13T01:32:04.218Z,1.55
2023-01-13T01:34:31.893Z,1.58
2023-01-13T01:37:00.998Z,1.77
2023-01-13T01:39:28.730Z,1.50
2023-01-13T01:42:13.572Z,1.85
2023-01-13T01:44:58.795Z,1.00
2023-01-13T01:47:27.963Z,1.40
2023-01-13T01:49:56.531Z,1.50
2023-01-13T01:52:27.323Z,3.20
2023-01-13T01:54:58.118Z,1.77
2023-01-13T01:57:28.345Z,1.48
2023-01-13T01:59:56.337Z,1.58
2023-01-13T02:02:24.195Z,1.45
2023-01-13T02:04:53.988Z,1.88
2023-01-13T02:07:23.063Z,1.90
2023-01-13T02:09:52.874Z,1.40
2023-01-13T02:12:32.899Z,1.45
2023-01-13T02:15:02.238Z,1.60
2023-01-13T02:17:37.307Z,2.03
2023-01-13T02:20:26.231Z,2.00
2023-01-13T02:23:34.730Z,1.88
2023-01-13T02:26:15.463Z,1.70
2023-01-13T02:29:04.520Z,1.25
2023-01-13T02:31:44.299Z,1.48
2023-01-13T02:34:14.777Z,2.38
2023-01-13T02:36:48.760Z,1.25
2023-01-13T02:39:19.930Z,1.60
2023-01-13T02:42:07.853Z,1.73
2023-01-13T02:44:42.321Z,1.30
2023-01-13T02:47:15.470Z,1.57
2023-01-13T02:49:46.112Z,1.08
2023-01-13T02:52:15.123Z,1.50
2023-01-13T02:54:44.931Z,1.80
2023-01-13T02:57:13.183Z,2.05
2023-01-13T02:59:41.800Z,1.60
2023-01-13T03:02:12.584Z,3.25
2023-01-13T03:04:47.915Z,1.40
2023-01-13T03:07:22.094Z,1.50
2023-01-13T03:09:55.424Z,2.22
2023-01-13T03:12:27.642Z,1.58
2023-01-13T03:14:58.538Z,1.30
2023-01-13T03:17:31.962Z,1.63
2023-01-13T03:20:05.676Z,1.55
2023-01-13T03:22:34.813Z,1.42
2023-01-13T03:25:04.862Z,1.42
2023-01-13T03:27:33.967Z,2.95
2023-01-13T03:30:04.330Z,0.88
2023-01-13T03:32:35.455Z,0.80
2023-01-13T03:35:05.603Z,1.35
2023-01-13T03:37:35.341Z,1.40
2023-01-13T03:40:05.382Z,1.45
2023-01-13T03:42:34.720Z,1.20
2023-01-13T03:45:04.262Z,1.35
2023-01-13T03:47:37.025Z,0.93
2023-01-13T03:50:08.259Z,1.60
2023-01-13T03:52:37.315Z,1.77
2023-01-13T03:55:08.596Z,1.80
2023-01-13T03:57:38.610Z,1.20
2023-01-13T04:00:09.541Z,1.10
2023-01-13T04:02:46.560Z,1.30
2023-01-13T04:05:14.613Z,1.83
2023-01-13T04:07:47.447Z,1.42
2023-01-13T04:10:17.773Z,2.20
2023-01-13T04:13:01.497Z,2.15
2023-01-13T04:15:30.378Z,1.92
2023-01-13T04:18:09.792Z,1.13
2023-01-13T04:20:37.453Z,1.30
2023-01-13T04:23:05.231Z,1.25
2023-01-13T04:25:33.028Z,1.23
2023-01-13T04:28:00.706Z,1.23
2023-01-13T04:30:28.375Z,1.00
2023-01-13T04:32:56.267Z,1.17
2023-01-13T04:35:25.553Z,0.95
2023-01-13T04:37:53.235Z,1.30
2023-01-13T04:40:20.916Z,1.40
2023-01-13T04:42:48.774Z,1.38
2023-01-13T04:45:16.518Z,1.20
2023-01-13T04:47:44.289Z,1.27
2023-01-13T04:50:12.495Z,1.90
2023-01-13T04:52:41.857Z,1.35
2023-01-13T04:55:10.218Z,1.45
2023-01-13T04:57:38.290Z,2.08
2023-01-13T05:00:06.865Z,1.23
2023-01-13T05:02:34.837Z,1.10
2023-01-13T05:05:02.575Z,1.25
2023-01-13T05:07:30.363Z,1.30
2023-01-13T05:09:59.544Z,1.75
2023-01-13T05:12:45.148Z,1.40
2023-01-13T05:15:39.031Z,1.38
2023-01-13T05:18:07.139Z,1.35
2023-01-13T05:20:34.780Z,1.45
2023-01-13T05:23:19.510Z,1.52
2023-01-13T05:25:49.113Z,1.30
2023-01-13T05:28:16.984Z,1.33
2023-01-13T05:30:49.265Z,2.22
2023-01-13T05:33:18.317Z,1.52
2023-01-13T05:35:47.111Z,1.60
2023-01-13T05:38:15.110Z,1.20
2023-01-13T05:41:00.626Z,1.23
2023-01-13T05:43:29.928Z,1.95
2023-01-13T05:45:58.786Z,2.08
2023-01-13T05:48:27.445Z,2.40
2023-01-13T05:50:55.423Z,1.60
2023-01-13T05:53:23.481Z,1.67
2023-01-13T05:55:51.838Z,3.13
2023-01-13T05:58:20.341Z,1.25
2023-01-13T06:00:49.694Z,2.55
2023-01-13T06:03:19.871Z,2.08
2023-01-13T06:05:49.537Z,2.40
2023-01-13T06:08:19.018Z,1.58
2023-01-13T06:10:47.026Z,2.55
2023-01-13T06:13:14.665Z,2.13
2023-01-13T06:15:42.329Z,2.78
2023-01-13T06:18:11.373Z,1.85
2023-01-13T06:20:39.193Z,1.73
2023-01-13T06:23:09.824Z,2.35
2023-01-13T06:25:40.792Z,2.38
2023-01-13T06:28:08.613Z,2.05
2023-01-13T06:30:39.240Z,1.98
2023-01-13T06:33:10.006Z,1.92
2023-01-13T06:35:41.480Z,2.13
2023-01-13T06:38:19.224Z,2.55
2023-01-13T06:40:47.094Z,3.38
2023-01-13T06:43:17.275Z,1.88
2023-01-13T06:45:47.610Z,2.30
2023-01-13T06:48:15.647Z,2.95
2023-01-13T06:50:44.679Z,2.40
2023-01-13T06:53:12.562Z,2.65
2023-01-13T06:55:40.230Z,2.58
2023-01-13T06:58:08.033Z,2.47
2023-01-13T07:00:37.036Z,2.15
2023-01-13T07:03:08.930Z,3.22
2023-01-13T07:05:36.598Z,3.58
2023-01-13T07:08:05.941Z,3.08
2023-01-13T07:10:34.008Z,1.98
2023-01-13T07:13:19.644Z,2.13
2023-01-13T07:15:57.137Z,3.03
2023-01-13T07:18:25.773Z,1.65
2023-01-13T07:20:53.907Z,2.35
2023-01-13T07:23:22.950Z,2.47
2023-01-13T07:25:50.623Z,2.58
2023-01-13T07:28:18.323Z,2.35
2023-01-13T07:30:46.021Z,3.08
2023-01-13T07:33:13.649Z,3.05
2023-01-13T07:35:41.438Z,3.50
2023-01-13T07:38:09.382Z,2.40
2023-01-13T07:40:38.620Z,2.15
2023-01-13T07:43:23.503Z,1.95
2023-01-13T07:45:51.191Z,2.75
2023-01-13T07:48:18.894Z,3.65
2023-01-13T07:50:46.557Z,2.30
2023-01-13T07:53:14.210Z,2.20
2023-01-13T07:55:43.889Z,2.90
2023-01-13T07:58:11.761Z,2.30
2023-01-13T08:00:39.603Z,2.38
2023-01-13T08:03:07.454Z,2.25
2023-01-13T08:05:36.067Z,2.25
2023-01-13T08:08:03.832Z,2.13
2023-01-13T08:10:31.541Z,2.15
2023-01-13T08:13:20.036Z,3.15
2023-01-13T08:15:48.776Z,2.88
2023-01-13T08:18:17.701Z,2.15
2023-01-13T08:20:45.380Z,4.07
2023-01-13T08:23:13.251Z,2.83
2023-01-13T08:25:41.032Z,2.35
2023-01-13T08:28:10.166Z,2.70
2023-01-13T08:30:37.895Z,3.03
2023-01-13T08:33:07.502Z,1.98
2023-01-13T08:35:36.713Z,3.00
2023-01-13T08:38:04.475Z,2.50
2023-01-13T08:40:32.133Z,2.90
2023-01-13T08:43:00.349Z,2.20
2023-01-13T08:45:29.465Z,3.13
2023-01-13T08:47:57.194Z,2.63
2023-01-13T08:50:24.930Z,3.28
2023-01-13T08:52:52.674Z,2.83
2023-01-13T08:55:20.362Z,3.40
2023-01-13T08:57:48.127Z,2.95
2023-01-13T09:00:17.295Z,2.42
2023-01-13T09:02:46.354Z,3.22
2023-01-13T09:05:16.885Z,2.97
2023-01-13T09:07:45.343Z,3.58
2023-01-13T09:10:13.002Z,3.35
2023-01-13T09:12:57.847Z,3.58
2023-01-13T09:15:25.605Z,2.28
2023-01-13T09:17:55.003Z,2.97
2023-01-13T09:20:22.684Z,3.55
2023-01-13T09:22:50.349Z,2.90
2023-01-13T09:25:18.095Z,3.17
2023-01-13T09:27:45.949Z,4.38
2023-01-13T09:30:13.902Z,5.05
2023-01-13T09:32:41.593Z,2.55
2023-01-13T09:35:10.041Z,2.95
2023-01-13T09:37:38.955Z,3.35
2023-01-13T09:40:08.331Z,3.33
2023-01-13T09:42:58.911Z,2.67
2023-01-13T09:45:28.640Z,2.90
2023-01-13T09:48:01.102Z,2.28
2023-01-13T09:50:49.339Z,3.15
2023-01-13T09:53:21.361Z,2.10
2023-01-13T09:55:49.273Z,1.88
2023-01-13T09:58:18.252Z,2.63
2023-01-13T10:00:47.975Z,1.70
2023-01-13T10:03:20.692Z,3.08
2023-01-13T10:05:51.192Z,2.53
2023-01-13T10:08:23.115Z,2.60
2023-01-13T10:10:53.703Z,3.15
2023-01-13T10:13:21.490Z,2.55
2023-01-13T10:16:04.133Z,3.10
2023-01-13T10:18:38.479Z,3.30
2023-01-13T10:21:09.871Z,2.40
2023-01-13T10:23:43.172Z,2.20
2023-01-13T10:26:21.082Z,2.47
2023-01-13T10:28:52.166Z,2.58
2023-01-13T10:31:20.990Z,2.65
2023-01-13T10:33:48.736Z,3.42
2023-01-13T10:36:17.459Z,3.35
2023-01-13T10:38:47.171Z,3.97
2023-01-13T10:41:19.125Z,2.92
2023-01-13T10:43:58.069Z,1.92
2023-01-13T10:46:25.847Z,2.30
2023-01-13T10:48:55.778Z,2.25
2023-01-13T10:51:24.909Z,3.53
2023-01-13T10:53:55.251Z,2.20
2023-01-13T10:56:23.515Z,2.05
2023-01-13T10:58:51.308Z,3.05
2023-01-13T11:01:21.490Z,1.90
2023-01-13T11:03:49.397Z,3.22
2023-01-13T11:06:21.277Z,2.53
2023-01-13T11:08:49.719Z,3.03
2023-01-13T11:11:29.663Z,2.63
2023-01-13T11:14:18.822Z,1.98
2023-01-13T11:16:53.473Z,3.00
2023-01-13T11:19:23.783Z,2.90
2023-01-13T11:21:54.620Z,2.22
2023-01-13T11:24:28.425Z,2.00
2023-01-13T11:26:59.788Z,2.45
2023-01-13T11:29:30.853Z,2.33
2023-01-13T11:32:02.534Z,2.60
2023-01-13T11:34:31.565Z,2.42
2023-01-13T11:36:59.724Z,2.90
2023-01-13T11:39:31.159Z,1.92
2023-01-13T11:42:20.234Z,2.25
2023-01-13T11:44:51.839Z,1.80
2023-01-13T11:47:22.241Z,1.65
2023-01-13T11:49:49.998Z,1.75
2023-01-13T11:52:22.465Z,1.90
2023-01-13T11:55:05.149Z,1.95
2023-01-13T11:57:42.004Z,2.22
2023-01-13T12:00:22.782Z,3.35
2023-01-13T12:02:58.084Z,1.52
2023-01-13T12:07:56.564Z,1.95
2023-01-13T12:10:33.710Z,2.78
2023-01-13T12:13:04.714Z,1.60
2023-01-13T12:15:56.439Z,3.28
2023-01-13T12:18:50.916Z,2.78
2023-01-13T12:21:22.498Z,2.30
2023-01-13T12:23:56.288Z,1.77
2023-01-13T12:26:24.319Z,1.67
2023-01-13T12:28:56.042Z,2.15
2023-01-13T12:31:24.590Z,1.90
2023-01-13T12:34:07.085Z,1.63
2023-01-13T12:36:41.749Z,2.20
2023-01-13T12:39:13.708Z,3.45
2023-01-13T12:42:03.402Z,3.15
2023-01-13T12:44:31.419Z,2.60
2023-01-13T12:47:00.105Z,3.60
2023-01-13T12:49:28.981Z,1.85
2023-01-13T12:52:07.328Z,1.67
2023-01-13T12:54:49.913Z,2.70
2023-01-13T12:57:21.457Z,2.40
2023-01-13T13:00:04.034Z,3.67
2023-01-13T13:02:34.169Z,2.17
2023-01-13T13:05:22.750Z,3.10
2023-01-13T13:07:53.051Z,2.63
2023-01-13T13:10:25.510Z,2.50
2023-01-13T13:13:11.460Z,2.45
2023-01-13T13:15:39.315Z,1.73
2023-01-13T13:18:27.515Z,1.65
2023-01-13T13:21:01.166Z,2.78
2023-01-13T13:23:37.834Z,2.10
2023-01-13T13:26:11.231Z,2.60
2023-01-13T13:28:50.824Z,2.30
2023-01-13T13:31:30.439Z,2.00
2023-01-13T13:34:07.105Z,2.15
2023-01-13T13:36:54.829Z,2.42
2023-01-13T13:39:41.058Z,2.08
2023-01-13T13:42:31.115Z,3.20
2023-01-13T13:45:18.275Z,2.40
2023-01-13T13:47:45.981Z,1.73
2023-01-13T13:50:19.410Z,2.55
2023-01-13T13:52:54.323Z,2.20
2023-01-13T13:55:23.760Z,2.30
2023-01-13T13:57:52.745Z,3.63
2023-01-13T14:00:24.609Z,1.42
2023-01-13T14:02:54.048Z,1.67
2023-01-13T14:05:23.017Z,1.85
2023-01-13T14:07:51.493Z,2.10
2023-01-13T14:10:21.465Z,1.77
2023-01-13T14:12:49.163Z,2.75
2023-01-13T14:15:28.699Z,2.97
2023-01-13T14:17:56.474Z,3.10
2023-01-13T14:20:24.254Z,1.95
2023-01-13T14:22:53.217Z,2.58
2023-01-13T14:25:34.479Z,2.00
2023-01-13T14:28:06.169Z,2.28
2023-01-13T14:30:35.327Z,2.05
2023-01-13T14:33:03.615Z,2.03
2023-01-13T14:35:31.409Z,2.10
2023-01-13T14:38:02.835Z,2.65
2023-01-13T14:40:46.982Z,2.63
2023-01-13T14:43:16.009Z,1.63
2023-01-13T14:45:54.914Z,1.90
2023-01-13T14:48:23.325Z,1.65
2023-01-13T14:50:51.506Z,1.70
2023-01-13T14:53:28.905Z,2.72
2023-01-13T14:55:56.569Z,3.05
2023-01-13T14:58:25.853Z,1.95
2023-01-13T15:01:14.992Z,2.72
2023-01-13T15:03:46.331Z,2.33
2023-01-13T15:06:24.596Z,1.90
2023-01-13T15:08:52.689Z,2.72
2023-01-13T15:11:25.019Z,2.05
2023-01-13T15:13:57.587Z,1.55
2023-01-13T15:16:26.533Z,2.03
2023-01-13T15:18:56.376Z,2.42
2023-01-13T15:21:25.187Z,1.50
2023-01-13T15:23:53.007Z,1.67
2023-01-13T15:26:22.257Z,1.42
2023-01-13T15:28:50.587Z,2.25
2023-01-13T15:31:18.649Z,1.52
2023-01-13T15:33:46.358Z,2.05
2023-01-13T15:36:27.012Z,1.63
2023-01-13T15:38:54.670Z,1.88
2023-01-13T15:41:42.893Z,3.58
2023-01-13T15:44:29.238Z,2.40
2023-01-13T15:46:57.576Z,1.48
2023-01-13T15:49:27.724Z,1.90
2023-01-13T15:51:56.747Z,2.08
2023-01-13T15:54:25.596Z,2.65
2023-01-13T15:56:53.567Z,2.53
2023-01-13T15:59:23.333Z,2.63
2023-01-13T16:01:51.070Z,2.58
2023-01-13T16:04:18.836Z,3.05
2023-01-13T16:06:47.564Z,2.50
2023-01-13T16:09:16.950Z,2.03
2023-01-13T16:11:44.994Z,1.50
2023-01-13T16:14:12.616Z,3.35
2023-01-13T16:16:40.899Z,2.25
2023-01-13T16:19:10.425Z,2.40
2023-01-13T16:21:38.403Z,2.13
2023-01-13T16:24:06.225Z,2.58
2023-01-13T16:26:37.423Z,2.47
2023-01-13T16:29:05.948Z,2.33
2023-01-13T16:31:34.381Z,3.47
2023-01-13T16:34:02.961Z,3.42
2023-01-13T16:36:31.804Z,2.75
2023-01-13T16:38:59.478Z,2.35
2023-01-13T16:41:27.182Z,2.75
2023-01-13T16:43:56.197Z,2.17
2023-01-13T16:46:25.232Z,3.05
2023-01-13T16:48:54.054Z,2.65
2023-01-13T16:51:22.102Z,2.75
2023-01-13T16:53:49.938Z,2.60
2023-01-13T16:56:20.624Z,2.38
2023-01-13T16:58:48.584Z,2.33
2023-01-13T17:01:24.686Z,2.85
2023-01-13T17:03:52.871Z,2.30
2023-01-13T17:06:22.677Z,4.35
2023-01-13T17:08:50.385Z,3.78
2023-01-13T17:11:18.070Z,2.55
2023-01-13T17:13:45.872Z,3.03
2023-01-13T17:16:24.409Z,3.47
2023-01-13T17:18:52.133Z,2.92
2023-01-13T17:21:19.815Z,2.92
2023-01-13T17:23:47.538Z,3.97
2023-01-13T17:26:33.277Z,2.42
2023-01-13T17:29:01.873Z,2.55
2023-01-13T17:31:31.214Z,3.15
2023-01-13T17:33:59.207Z,3.03
2023-01-13T17:36:26.901Z,3.22
2023-01-13T17:38:55.193Z,3.00
2023-01-13T17:41:22.992Z,2.13
2023-01-13T17:43:50.642Z,3.10
2023-01-13T17:46:19.878Z,2.13
2023-01-13T17:48:49.121Z,2.42
2023-01-13T17:51:17.297Z,2.30
2023-01-13T17:53:45.493Z,2.95
2023-01-13T17:56:13.989Z,2.83
2023-01-13T17:58:42.546Z,3.20
2023-01-13T18:01:10.982Z,4.13
2023-01-13T18:03:38.874Z,3.35
2023-01-13T18:06:09.157Z,3.35
2023-01-13T18:08:36.832Z,3.13
2023-01-13T18:11:04.533Z,3.53
2023-01-13T18:13:34.192Z,4.05
2023-01-13T18:16:03.456Z,3.40
2023-01-13T18:18:31.111Z,5.65
2023-01-13T18:21:15.988Z,2.88
2023-01-13T18:24:02.426Z,3.75
2023-01-13T18:26:47.440Z,2.95
2023-01-13T18:29:15.161Z,2.70
2023-01-13T18:31:42.818Z,3.42
2023-01-13T18:34:10.490Z,2.70
2023-01-13T18:36:38.512Z,3.25
2023-01-13T18:39:07.516Z,3.80
2023-01-13T18:41:52.804Z,3.08
2023-01-13T18:44:20.487Z,3.85
2023-01-13T18:46:48.240Z,4.47
2023-01-13T18:49:16.176Z,3.65
2023-01-13T18:51:44.116Z,3.58
2023-01-13T18:54:13.131Z,3.17
2023-01-13T18:56:41.114Z,3.22
2023-01-13T18:59:08.783Z,3.25
2023-01-13T19:01:37.986Z,3.08
2023-01-13T19:04:10.400Z,3.00
2023-01-13T19:06:42.387Z,4.45
2023-01-13T19:09:11.176Z,3.85
2023-01-13T19:11:41.550Z,3.85
2023-01-13T19:14:09.621Z,4.30
2023-01-13T19:16:37.412Z,3.60
2023-01-13T19:19:05.084Z,3.85
2023-01-13T19:21:32.736Z,3.33
2023-01-13T19:24:00.383Z,4.45
2023-01-13T19:26:28.122Z,3.20
2023-01-13T19:28:57.179Z,4.80
2023-01-13T19:31:24.942Z,4.05
2023-01-13T19:33:52.612Z,3.15
2023-01-13T19:36:20.254Z,2.85
2023-01-13T19:38:47.890Z,3.58
2023-01-13T19:41:29.357Z,3.28
2023-01-13T19:44:16.047Z,3.97
2023-01-13T19:46:43.742Z,4.05
2023-01-13T19:49:12.190Z,2.83
2023-01-13T19:51:39.909Z,4.50
2023-01-13T19:54:07.562Z,2.95
2023-01-13T19:56:35.297Z,4.03
2023-01-13T19:59:06.990Z,3.75
2023-01-13T20:01:37.617Z,3.88
2023-01-13T20:04:08.521Z,4.75
2023-01-13T20:06:37.825Z,4.75
2023-01-13T20:09:05.464Z,2.95
2023-01-13T20:11:33.332Z,3.58
2023-01-13T20:14:01.817Z,2.53
2023-01-13T20:16:32.946Z,3.70
2023-01-13T20:19:00.992Z,2.42
2023-01-13T20:21:28.685Z,4.05
2023-01-13T20:23:56.878Z,4.05
2023-01-13T20:26:24.670Z,4.85
2023-01-13T20:28:52.412Z,3.88
2023-01-13T20:31:20.123Z,3.67
2023-01-13T20:33:51.489Z,3.45
2023-01-13T20:36:24.323Z,3.70
2023-01-13T20:38:51.980Z,2.72
2023-01-13T20:41:37.179Z,3.17
2023-01-13T20:44:06.128Z,3.50
2023-01-13T20:46:33.885Z,4.22
2023-01-13T20:49:03.033Z,3.70
2023-01-13T20:51:30.745Z,3.30
2023-01-13T20:53:58.456Z,4.18
2023-01-13T20:56:33.743Z,3.97
2023-01-13T20:59:02.477Z,2.78
2023-01-13T21:01:31.539Z,3.75
2023-01-13T21:04:00.028Z,2.55
2023-01-13T21:06:29.614Z,2.78
2023-01-13T21:08:57.304Z,3.30
2023-01-13T21:11:39.968Z,2.85
2023-01-13T21:14:25.612Z,3.58
2023-01-13T21:16:53.334Z,3.17
2023-01-13T21:19:20.020Z,3.72
2023-01-13T21:21:49.101Z,2.90
2023-01-13T21:24:16.835Z,2.95
2023-01-13T21:26:44.513Z,3.95
2023-01-13T21:29:12.183Z,2.58
2023-01-13T21:31:39.996Z,3.00
2023-01-13T21:34:07.709Z,3.72
2023-01-13T21:36:35.496Z,2.78
2023-01-13T21:39:10.536Z,3.53
2023-01-13T21:41:55.349Z,3.65
2023-01-13T21:44:40.248Z,3.17
2023-01-13T21:47:32.138Z,3.28
2023-01-13T21:49:59.870Z,4.95
2023-01-13T21:52:27.660Z,3.50
2023-01-13T21:55:14.083Z,4.25
2023-01-13T21:57:41.712Z,2.92
2023-01-13T22:00:10.669Z,3.60
2023-01-13T22:02:38.408Z,3.95
2023-01-13T22:05:07.326Z,3.33
2023-01-13T22:07:35.603Z,3.83
2023-01-13T22:10:05.069Z,2.50
2023-01-13T22:12:32.814Z,3.70
2023-01-13T22:15:00.507Z,3.00
2023-01-13T22:17:31.511Z,3.70
2023-01-13T22:19:59.970Z,2.42
2023-01-13T22:22:29.137Z,3.45
2023-01-13T22:24:56.847Z,3.60
2023-01-13T22:27:28.931Z,3.95
2023-01-13T22:29:56.631Z,4.35
2023-01-13T22:32:24.464Z,3.13
2023-01-13T22:34:52.211Z,3.22
2023-01-13T22:37:20.028Z,4.70
2023-01-13T22:39:47.633Z,3.30
2023-01-13T22:42:15.595Z,3.42
2023-01-13T22:44:45.349Z,3.45
2023-01-13T22:47:13.072Z,3.53
2023-01-13T22:49:42.094Z,3.15
2023-01-13T22:52:09.794Z,3.72
2023-01-13T22:54:37.442Z,3.80
2023-01-13T22:57:05.299Z,3.53
2023-01-13T22:59:32.993Z,3.88
2023-01-13T23:02:02.020Z,3.13
2023-01-13T23:04:29.870Z,4.20
2023-01-13T23:06:57.658Z,4.50
2023-01-13T23:09:25.347Z,3.97
2023-01-13T23:11:53.660Z,3.38
2023-01-13T23:14:21.863Z,3.72
2023-01-13T23:16:49.546Z,3.63
2023-01-13T23:19:18.567Z,4.03
2023-01-13T23:21:46.239Z,2.50
2023-01-13T23:24:13.901Z,3.60
2023-01-13T23:26:41.678Z,4.32
2023-01-13T23:29:12.371Z,4.28
2023-01-13T23:31:40.298Z,3.58
2023-01-13T23:34:08.147Z,4.18
2023-01-13T23:36:41.033Z,4.05
2023-01-13T23:39:09.208Z,3.88
2023-01-13T23:41:36.955Z,2.90
2023-01-13T23:44:04.628Z,3.67
2023-01-13T23:46:33.927Z,3.40
2023-01-13T23:49:02.215Z,3.55
2023-01-13T23:51:30.838Z,3.33
2023-01-13T23:54:00.458Z,3.53
2023-01-13T23:56:29.148Z,4.43
2023-01-13T23:58:56.905Z,4.18
